createdAt,value
2018-12-01T00:00:49.678Z,92.54
2018-12-01T00:01:49.892Z,92.85
2018-12-01T00:02:49.805Z,93.48
2018-12-01T00:03:49.716Z,93.37
2018-12-01T00:04:49.769Z,93.12
2018-12-01T00:05:49.801Z,93.02
2018-12-01T00:06:49.796Z,93.33
2018-12-01T00:07:49.867Z,92.81
2018-12-01T00:08:49.841Z,93.02
2018-12-01T00:11:06.504Z,93.29
2018-12-01T00:12:05.224Z,91.66
2018-12-01T00:13:02.674Z,91.46
2018-12-01T00:14:02.362Z,91.77
2018-12-01T00:15:02.633Z,92.71
2018-12-01T00:16:02.449Z,91.91
2018-12-01T00:17:02.587Z,91.25
2018-12-01T00:18:15.727Z,91.77
2018-12-01T00:19:02.822Z,92.02
2018-12-01T00:20:02.578Z,91.81
2018-12-01T00:21:02.479Z,92.02
2018-12-01T00:22:02.380Z,92.02
2018-12-01T00:23:02.280Z,92.44
2018-12-01T00:24:02.499Z,92.54
2018-12-01T00:25:02.731Z,92.65
2018-12-01T00:27:35.897Z,92.65
2018-12-01T00:28:35.773Z,93.10
2018-12-01T00:29:38.757Z,93.06
2018-12-01T00:30:38.787Z,93.06
2018-12-01T00:31:35.808Z,93.48
2018-12-01T00:32:35.754Z,92.33
2018-12-01T00:33:35.806Z,92.44
2018-12-01T00:34:35.786Z,93.48
2018-12-01T00:35:35.813Z,93.06
2018-12-01T00:36:35.823Z,93.16
2018-12-01T00:37:35.685Z,93.12
2018-12-01T00:38:35.614Z,93.16
2018-12-01T00:39:35.796Z,93.23
2018-12-01T00:42:23.801Z,93.08
2018-12-01T00:43:24.667Z,93.44
2018-12-01T00:44:23.657Z,92.60
2018-12-01T00:45:24.778Z,92.50
2018-12-01T00:46:24.111Z,92.71
2018-12-01T00:47:24.851Z,92.66
2018-12-01T00:48:24.802Z,92.56
2018-12-01T00:49:23.799Z,92.35
2018-12-01T00:50:23.730Z,91.46
2018-12-01T00:51:23.844Z,91.14
2018-12-01T00:52:23.800Z,92.18
2018-12-01T00:53:23.717Z,92.29
2018-12-01T00:54:23.701Z,92.60
2018-12-01T00:55:23.573Z,92.40
2018-12-01T00:57:54.783Z,92.60
2018-12-01T00:58:49.665Z,92.40
2018-12-01T00:59:49.565Z,92.40
2018-12-01T01:00:48.527Z,92.71
2018-12-01T01:01:48.818Z,93.02
2018-12-01T01:02:48.836Z,92.60
2018-12-01T01:03:48.618Z,92.50
2018-12-01T01:04:49.732Z,92.50
2018-12-01T01:05:49.674Z,92.81
2018-12-01T01:06:48.669Z,92.71
2018-12-01T01:07:48.543Z,92.66
2018-12-01T01:08:48.843Z,92.50
2018-12-01T01:09:48.850Z,92.71
2018-12-01T01:10:48.548Z,92.25
2018-12-01T01:13:24.790Z,92.46
2018-12-01T01:14:02.803Z,92.03
2018-12-01T01:15:02.778Z,91.97
2018-12-01T01:16:02.789Z,91.93
2018-12-01T01:17:02.725Z,91.87
2018-12-01T01:18:02.840Z,91.81
2018-12-01T01:19:03.463Z,91.91
2018-12-01T01:20:02.710Z,92.54
2018-12-01T01:21:02.624Z,92.65
2018-12-01T01:22:03.148Z,92.96
2018-12-01T01:23:02.795Z,92.75
2018-12-01T01:24:02.875Z,93.16
2018-12-01T01:25:02.800Z,92.91
2018-12-01T01:26:02.786Z,93.44
2018-12-01T01:28:12.845Z,93.44
2018-12-01T01:29:13.525Z,92.65
2018-12-01T01:30:12.805Z,92.60
2018-12-01T01:31:12.941Z,93.48
2018-12-01T01:32:12.826Z,93.48
2018-12-01T01:33:12.809Z,93.48
2018-12-01T01:34:12.806Z,93.37
2018-12-01T01:35:12.656Z,93.37
2018-12-01T01:36:12.825Z,93.37
2018-12-01T01:37:12.768Z,93.37
2018-12-01T01:38:12.886Z,93.37
2018-12-01T01:39:12.855Z,93.27
2018-12-01T01:40:12.827Z,92.91
2018-12-01T01:41:12.897Z,93.02
2018-12-01T01:43:44.869Z,93.37
2018-12-01T01:44:50.856Z,93.48
2018-12-01T01:45:44.831Z,93.02
2018-12-01T01:46:44.815Z,92.44
2018-12-01T01:47:44.898Z,92.85
2018-12-01T01:48:44.888Z,93.48
2018-12-01T01:49:44.855Z,93.37
2018-12-01T01:50:44.839Z,93.16
2018-12-01T01:51:44.928Z,93.06
2018-12-01T01:52:45.541Z,93.27
2018-12-01T01:53:44.790Z,93.37
2018-12-01T01:54:44.777Z,93.16
2018-12-01T01:55:45.193Z,93.44
2018-12-01T01:56:44.859Z,92.81
2018-12-01T02:00:14.885Z,93.06
2018-12-01T02:01:09.830Z,92.33
2018-12-01T02:02:09.482Z,93.02
2018-12-01T02:03:09.375Z,92.81
2018-12-01T02:04:10.077Z,93.16
2018-12-01T02:05:09.807Z,93.37
2018-12-01T02:06:09.408Z,93.02
2018-12-01T02:07:09.307Z,93.02
2018-12-01T02:08:09.557Z,93.12
2018-12-01T02:09:09.758Z,93.33
2018-12-01T02:10:09.843Z,92.91
2018-12-01T02:11:09.421Z,93.33
2018-12-01T02:12:09.569Z,93.02
2018-12-01T02:14:38.898Z,92.81
2018-12-01T02:15:37.838Z,93.48
2018-12-01T02:16:37.836Z,93.37
2018-12-01T02:17:37.842Z,93.37
2018-12-01T02:18:37.781Z,93.06
2018-12-01T02:19:37.889Z,93.06
2018-12-01T02:20:37.875Z,93.06
2018-12-01T02:21:37.879Z,93.37
2018-12-01T02:22:37.709Z,93.06
2018-12-01T02:23:37.983Z,93.27
2018-12-01T02:24:37.882Z,93.16
2018-12-01T02:25:37.972Z,93.06
2018-12-01T02:26:37.973Z,93.16
2018-12-01T02:27:37.873Z,93.27
2018-12-01T02:30:25.853Z,93.02
2018-12-01T02:31:12.872Z,93.12
2018-12-01T02:32:12.783Z,93.12
2018-12-01T02:33:12.671Z,93.06
2018-12-01T02:34:12.920Z,93.33
2018-12-01T02:35:12.853Z,93.37
2018-12-01T02:36:12.956Z,92.91
2018-12-01T02:37:13.020Z,93.16
2018-12-01T02:38:13.022Z,93.06
2018-12-01T02:39:12.837Z,93.48
2018-12-01T02:40:12.686Z,94.00
2018-12-01T02:41:12.921Z,94.10
2018-12-01T02:42:13.068Z,93.59
2018-12-01T02:43:12.681Z,93.27
2018-12-01T02:45:30.877Z,93.59
2018-12-01T02:46:29.248Z,93.37
2018-12-01T02:47:29.456Z,93.33
2018-12-01T02:48:29.074Z,93.90
2018-12-01T02:49:28.957Z,93.12
2018-12-01T02:50:28.960Z,93.16
2018-12-01T02:51:28.969Z,93.75
2018-12-01T02:52:28.947Z,93.06
2018-12-01T02:53:29.549Z,93.16
2018-12-01T02:54:29.456Z,93.96
2018-12-01T02:55:28.952Z,92.96
2018-12-01T02:56:28.931Z,93.23
2018-12-01T02:57:29.202Z,94.06
2018-12-01T02:58:29.007Z,94.27
2018-12-01T03:01:26.908Z,93.23
2018-12-01T03:02:24.370Z,93.33
2018-12-01T03:03:24.893Z,93.12
2018-12-01T03:04:24.104Z,93.23
2018-12-01T03:05:24.086Z,93.33
2018-12-01T03:06:24.280Z,93.44
2018-12-01T03:07:24.152Z,93.33
2018-12-01T03:08:24.045Z,92.91
2018-12-01T03:09:24.337Z,93.12
2018-12-01T03:10:24.017Z,93.02
2018-12-01T03:11:24.050Z,93.65
2018-12-01T03:12:24.068Z,93.71
2018-12-01T03:13:24.572Z,93.12
2018-12-01T03:15:34.031Z,93.08
2018-12-01T03:16:33.967Z,93.23
2018-12-01T03:17:34.921Z,93.44
2018-12-01T03:18:33.941Z,93.08
2018-12-01T03:19:33.831Z,93.23
2018-12-01T03:20:33.928Z,93.23
2018-12-01T03:21:33.925Z,93.50
2018-12-01T03:22:33.863Z,93.08
2018-12-01T03:23:33.961Z,93.18
2018-12-01T03:24:34.297Z,92.56
2018-12-01T03:25:33.916Z,93.02
2018-12-01T03:26:33.951Z,93.23
2018-12-01T03:27:34.006Z,92.91
2018-12-01T03:28:34.215Z,93.23
2018-12-01T03:30:46.223Z,93.65
2018-12-01T03:31:44.628Z,94.06
2018-12-01T03:32:44.246Z,93.75
2018-12-01T03:33:44.197Z,93.79
2018-12-01T03:34:44.724Z,93.79
2018-12-01T03:35:44.324Z,94.06
2018-12-01T03:36:44.546Z,94.06
2018-12-01T03:37:44.065Z,94.17
2018-12-01T03:38:44.380Z,93.75
2018-12-01T03:39:44.082Z,94.27
2018-12-01T03:40:44.051Z,94.27
2018-12-01T03:41:44.049Z,94.27
2018-12-01T03:42:44.054Z,94.37
2018-12-01T03:43:44.072Z,93.96
2018-12-01T03:44:43.958Z,94.06
2018-12-01T03:47:27.488Z,94.27
2018-12-01T03:48:27.666Z,93.96
2018-12-01T03:49:27.594Z,93.85
2018-12-01T03:50:28.077Z,94.06
2018-12-01T03:51:27.053Z,93.85
2018-12-01T03:52:28.966Z,94.06
2018-12-01T03:53:27.127Z,94.37
2018-12-01T03:54:27.026Z,94.31
2018-12-01T03:55:27.623Z,94.42
2018-12-01T03:56:27.016Z,94.21
2018-12-01T03:57:27.002Z,94.52
2018-12-01T03:58:27.003Z,94.52
2018-12-01T03:59:27.187Z,94.63
2018-12-01T04:01:39.007Z,94.73
2018-12-01T04:02:39.984Z,94.63
2018-12-01T04:03:38.056Z,95.21
2018-12-01T04:04:38.046Z,95.88
2018-12-01T04:05:40.003Z,95.46
2018-12-01T04:06:38.227Z,95.21
2018-12-01T04:07:38.748Z,95.62
2018-12-01T04:08:37.977Z,95.83
2018-12-01T04:09:37.982Z,96.04
2018-12-01T04:10:37.960Z,96.09
2018-12-01T04:11:37.960Z,95.15
2018-12-01T04:12:38.025Z,95.56
2018-12-01T04:13:38.238Z,95.73
2018-12-01T04:14:37.996Z,95.83
2018-12-01T04:15:38.014Z,95.88
2018-12-01T04:17:50.719Z,95.42
2018-12-01T04:18:54.602Z,96.04
2018-12-01T04:19:50.819Z,95.78
2018-12-01T04:20:49.983Z,96.09
2018-12-01T04:21:49.708Z,95.83
2018-12-01T04:22:49.991Z,96.04
2018-12-01T04:23:49.948Z,94.90
2018-12-01T04:24:49.738Z,96.04
2018-12-01T04:25:49.974Z,96.04
2018-12-01T04:26:50.046Z,95.79
2018-12-01T04:27:49.786Z,95.83
2018-12-01T04:28:49.989Z,96.00
2018-12-01T04:29:50.349Z,95.17
2018-12-01T04:30:49.998Z,95.79
2018-12-01T04:33:01.018Z,94.64
2018-12-01T04:34:01.007Z,94.58
2018-12-01T04:35:01.014Z,94.58
2018-12-01T04:36:01.025Z,95.73
2018-12-01T04:37:02.418Z,95.83
2018-12-01T04:38:00.778Z,95.52
2018-12-01T04:39:00.989Z,95.89
2018-12-01T04:40:00.913Z,96.04
2018-12-01T04:41:00.807Z,96.00
2018-12-01T04:42:00.985Z,96.21
2018-12-01T04:43:00.989Z,95.48
2018-12-01T04:44:00.834Z,95.79
2018-12-01T04:45:00.784Z,95.68
2018-12-01T04:46:01.999Z,95.79
2018-12-01T04:48:12.038Z,95.06
2018-12-01T04:49:11.429Z,95.37
2018-12-01T04:50:11.321Z,95.58
2018-12-01T04:51:11.156Z,95.68
2018-12-01T04:52:11.144Z,95.58
2018-12-01T04:53:11.358Z,95.79
2018-12-01T04:54:11.172Z,95.68
2018-12-01T04:55:11.082Z,95.62
2018-12-01T04:56:11.428Z,95.48
2018-12-01T04:57:11.108Z,94.96
2018-12-01T04:58:11.196Z,95.68
2018-12-01T04:59:12.025Z,95.52
2018-12-01T05:00:11.041Z,95.79
2018-12-01T05:01:11.028Z,96.04
2018-12-01T05:03:26.031Z,95.83
2018-12-01T05:04:26.029Z,95.52
2018-12-01T05:05:25.085Z,96.36
2018-12-01T05:06:25.029Z,96.31
2018-12-01T05:07:25.019Z,95.62
2018-12-01T05:08:25.040Z,95.83
2018-12-01T05:09:24.978Z,95.62
2018-12-01T05:10:24.835Z,95.48
2018-12-01T05:11:25.220Z,95.27
2018-12-01T05:12:25.025Z,95.58
2018-12-01T05:13:24.832Z,95.89
2018-12-01T05:14:25.041Z,95.79
2018-12-01T05:15:24.740Z,95.89
2018-12-01T05:16:24.827Z,95.58
2018-12-01T05:18:46.135Z,95.85
2018-12-01T05:19:46.055Z,95.79
2018-12-01T05:20:46.084Z,96.00
2018-12-01T05:21:46.056Z,95.95
2018-12-01T05:22:46.074Z,95.85
2018-12-01T05:23:45.994Z,96.06
2018-12-01T05:24:45.891Z,95.95
2018-12-01T05:25:46.066Z,95.95
2018-12-01T05:26:46.043Z,94.92
2018-12-01T05:27:45.920Z,94.60
2018-12-01T05:28:46.049Z,94.08
2018-12-01T05:29:46.047Z,94.49
2018-12-01T05:30:45.934Z,94.54
2018-12-01T05:31:45.825Z,95.48
2018-12-01T05:34:10.040Z,95.06
2018-12-01T05:35:08.082Z,95.48
2018-12-01T05:36:09.074Z,95.48
2018-12-01T05:37:09.042Z,95.06
2018-12-01T05:38:08.309Z,95.79
2018-12-01T05:39:08.092Z,95.37
2018-12-01T05:40:08.101Z,95.37
2018-12-01T05:41:08.037Z,95.06
2018-12-01T05:42:07.963Z,96.11
2018-12-01T05:43:08.054Z,96.00
2018-12-01T05:44:08.057Z,95.68
2018-12-01T05:45:07.946Z,96.00
2018-12-01T05:46:08.117Z,95.75
2018-12-01T05:47:08.061Z,95.48
2018-12-01T05:49:20.109Z,95.79
2018-12-01T05:50:19.758Z,95.43
2018-12-01T05:51:20.070Z,95.75
2018-12-01T05:52:19.860Z,95.12
2018-12-01T05:53:19.785Z,95.23
2018-12-01T05:54:19.670Z,95.75
2018-12-01T05:55:19.572Z,95.02
2018-12-01T05:56:19.491Z,94.92
2018-12-01T05:57:20.076Z,95.58
2018-12-01T05:58:19.611Z,95.43
2018-12-01T05:59:20.072Z,94.70
2018-12-01T06:00:19.428Z,95.17
2018-12-01T06:01:19.946Z,94.92
2018-12-01T06:02:20.081Z,94.85
2018-12-01T06:04:44.112Z,95.68
2018-12-01T06:05:43.831Z,95.68
2018-12-01T06:06:44.094Z,95.06
2018-12-01T06:07:43.633Z,94.85
2018-12-01T06:08:43.219Z,96.00
2018-12-01T06:09:44.095Z,96.00
2018-12-01T06:10:43.206Z,96.00
2018-12-01T06:11:43.196Z,96.11
2018-12-01T06:12:43.492Z,96.00
2018-12-01T06:13:45.111Z,95.89
2018-12-01T06:14:43.215Z,95.85
2018-12-01T06:15:43.187Z,95.43
2018-12-01T06:16:43.735Z,95.23
2018-12-01T06:17:43.155Z,95.75
2018-12-01T06:20:18.124Z,95.64
2018-12-01T06:21:16.509Z,95.54
2018-12-01T06:22:16.402Z,95.17
2018-12-01T06:23:16.214Z,96.00
2018-12-01T06:24:16.209Z,96.00
2018-12-01T06:25:16.752Z,95.95
2018-12-01T06:26:16.187Z,95.79
2018-12-01T06:27:16.179Z,95.37
2018-12-01T06:28:16.767Z,96.26
2018-12-01T06:29:17.899Z,95.64
2018-12-01T06:30:16.165Z,95.43
2018-12-01T06:31:16.784Z,95.75
2018-12-01T06:32:16.116Z,95.95
2018-12-01T06:33:16.287Z,95.85
2018-12-01T06:35:28.140Z,94.60
2018-12-01T06:36:27.681Z,94.81
2018-12-01T06:37:27.208Z,95.23
2018-12-01T06:38:27.167Z,94.92
2018-12-01T06:39:27.112Z,94.49
2018-12-01T06:40:26.972Z,94.60
2018-12-01T06:41:29.127Z,94.92
2018-12-01T06:42:27.134Z,94.81
2018-12-01T06:43:27.016Z,95.43
2018-12-01T06:44:27.312Z,95.64
2018-12-01T06:45:27.155Z,95.75
2018-12-01T06:46:27.669Z,95.75
2018-12-01T06:47:27.245Z,95.64
2018-12-01T06:48:27.210Z,95.12
2018-12-01T06:50:59.432Z,94.39
2018-12-01T06:51:59.188Z,94.49
2018-12-01T06:52:59.017Z,94.49
2018-12-01T06:53:59.161Z,95.02
2018-12-01T06:54:59.163Z,95.23
2018-12-01T06:55:59.089Z,95.12
2018-12-01T06:57:00.165Z,95.43
2018-12-01T06:57:59.150Z,94.81
2018-12-01T06:58:59.188Z,94.66
2018-12-01T07:00:00.173Z,94.60
2018-12-01T07:00:59.124Z,94.70
2018-12-01T07:01:59.110Z,94.49
2018-12-01T07:02:59.177Z,94.60
2018-12-01T07:03:58.920Z,95.33
2018-12-01T07:06:12.183Z,95.08
2018-12-01T07:07:12.170Z,95.39
2018-12-01T07:08:13.261Z,95.64
2018-12-01T07:09:12.133Z,95.39
2018-12-01T07:10:12.179Z,95.50
2018-12-01T07:11:12.093Z,95.08
2018-12-01T07:12:11.977Z,95.08
2018-12-01T07:13:12.514Z,94.45
2018-12-01T07:14:12.099Z,94.56
2018-12-01T07:15:12.033Z,94.14
2018-12-01T07:16:12.218Z,94.04
2018-12-01T07:17:12.181Z,94.45
2018-12-01T07:18:12.094Z,94.56
2018-12-01T07:19:11.947Z,94.04
2018-12-01T07:21:32.183Z,94.56
2018-12-01T07:22:27.158Z,94.35
2018-12-01T07:23:26.239Z,94.66
2018-12-01T07:24:24.961Z,94.24
2018-12-01T07:25:25.204Z,93.93
2018-12-01T07:26:25.117Z,94.45
2018-12-01T07:27:25.237Z,93.93
2018-12-01T07:28:25.236Z,94.24
2018-12-01T07:29:25.102Z,94.72
2018-12-01T07:30:25.177Z,94.41
2018-12-01T07:31:24.913Z,94.41
2018-12-01T07:32:24.818Z,93.89
2018-12-01T07:33:26.353Z,93.68
2018-12-01T07:34:25.187Z,93.64
2018-12-01T07:36:58.336Z,93.48
2018-12-01T07:37:59.055Z,93.12
2018-12-01T07:39:00.173Z,93.05
2018-12-01T07:39:58.163Z,93.05
2018-12-01T07:40:58.283Z,93.12
2018-12-01T07:41:58.170Z,93.27
2018-12-01T07:42:58.269Z,93.37
2018-12-01T07:43:58.277Z,93.58
2018-12-01T07:44:58.230Z,93.12
2018-12-01T07:45:58.197Z,93.23
2018-12-01T07:46:58.203Z,92.80
2018-12-01T07:47:58.104Z,93.23
2018-12-01T07:48:58.228Z,93.01
2018-12-01T07:49:58.247Z,92.80
2018-12-01T07:52:47.179Z,93.12
2018-12-01T07:53:47.194Z,92.60
2018-12-01T07:54:45.198Z,93.23
2018-12-01T07:55:45.201Z,92.70
2018-12-01T07:56:44.980Z,92.55
2018-12-01T07:57:44.859Z,92.55
2018-12-01T07:58:44.768Z,92.39
2018-12-01T07:59:45.219Z,92.39
2018-12-01T08:00:44.883Z,92.18
2018-12-01T08:01:44.784Z,92.29
2018-12-01T08:02:44.692Z,92.18
2018-12-01T08:03:45.201Z,92.18
2018-12-01T08:04:44.844Z,92.08
2018-12-01T08:06:57.872Z,93.12
2018-12-01T08:07:57.119Z,93.12
2018-12-01T08:08:57.218Z,93.12
2018-12-01T08:09:57.542Z,92.91
2018-12-01T08:10:56.829Z,92.80
2018-12-01T08:11:57.035Z,92.91
2018-12-01T08:12:57.220Z,92.70
2018-12-01T08:13:57.162Z,93.12
2018-12-01T08:14:57.077Z,93.12
2018-12-01T08:15:56.983Z,93.23
2018-12-01T08:16:56.882Z,93.12
2018-12-01T08:17:56.781Z,92.80
2018-12-01T08:18:57.302Z,92.80
2018-12-01T08:19:56.913Z,93.23
2018-12-01T08:22:44.222Z,93.07
2018-12-01T08:23:31.939Z,92.97
2018-12-01T08:24:32.153Z,92.66
2018-12-01T08:27:17.230Z,92.55
2018-12-01T08:28:16.119Z,91.99
2018-12-01T08:29:16.263Z,91.68
2018-12-01T08:30:16.223Z,91.68
2018-12-01T08:31:15.816Z,91.95
2018-12-01T08:32:16.025Z,91.02
2018-12-01T08:33:15.942Z,90.91
2018-12-01T08:34:16.245Z,90.45
2018-12-01T08:35:16.052Z,90.14
2018-12-01T08:37:39.245Z,89.42
2018-12-01T08:38:39.139Z,89.42
2018-12-01T08:39:39.220Z,89.73
2018-12-01T08:40:39.532Z,89.94
2018-12-01T08:41:38.854Z,89.52
2018-12-01T08:42:40.247Z,89.62
2018-12-01T08:43:39.711Z,89.42
2018-12-01T08:44:39.295Z,89.62
2018-12-01T08:45:39.203Z,89.06
2018-12-01T08:46:39.035Z,89.27
2018-12-01T08:47:39.245Z,89.06
2018-12-01T08:48:39.192Z,89.06
2018-12-01T08:49:39.403Z,88.65
2018-12-01T08:50:39.265Z,89.06
2018-12-01T08:53:20.394Z,89.58
2018-12-01T08:54:19.357Z,89.52
2018-12-01T08:55:18.313Z,89.58
2018-12-01T08:56:18.262Z,89.48
2018-12-01T08:57:18.568Z,89.27
2018-12-01T08:58:18.542Z,89.23
2018-12-01T08:59:18.290Z,88.40
2018-12-01T09:00:18.599Z,88.57
2018-12-01T09:01:18.212Z,87.63
2018-12-01T09:02:18.281Z,86.97
2018-12-01T09:03:18.925Z,87.28
2018-12-01T09:04:19.255Z,86.55
2018-12-01T09:05:18.381Z,87.04
2018-12-01T09:06:18.468Z,86.00
2018-12-01T09:08:49.407Z,86.45
2018-12-01T09:09:49.269Z,86.00
2018-12-01T09:10:48.758Z,86.04
2018-12-01T09:11:48.578Z,86.21
2018-12-01T09:12:48.783Z,85.69
2018-12-01T09:13:48.694Z,85.03
2018-12-01T09:14:48.607Z,84.96
2018-12-01T09:15:48.475Z,84.96
2018-12-01T09:16:49.297Z,85.27
2018-12-01T09:17:48.987Z,86.00
2018-12-01T09:18:48.547Z,85.13
2018-12-01T09:19:48.737Z,85.55
2018-12-01T09:20:48.700Z,84.82
2018-12-01T09:21:48.413Z,85.30
2018-12-01T09:24:01.300Z,84.47
2018-12-01T09:25:01.304Z,84.12
2018-12-01T09:26:01.168Z,84.22
2018-12-01T09:27:00.663Z,83.50
2018-12-01T09:28:02.112Z,83.05
2018-12-01T09:29:01.287Z,82.08
2018-12-01T09:30:00.724Z,81.21
2018-12-01T09:31:00.653Z,80.35
2018-12-01T09:32:00.515Z,79.32
2018-12-01T09:33:00.736Z,78.59
2018-12-01T09:34:01.403Z,78.25
2018-12-01T09:35:00.452Z,78.77
2018-12-01T09:36:00.743Z,78.35
2018-12-01T09:37:00.634Z,78.21
2018-12-01T09:39:13.042Z,76.70
2018-12-01T09:40:13.380Z,74.63
2018-12-01T09:41:11.946Z,72.20
2018-12-01T09:42:11.827Z,71.37
2018-12-01T09:43:11.733Z,71.24
2018-12-01T09:44:11.953Z,73.02
2018-12-01T09:45:11.919Z,73.47
2018-12-01T09:46:12.705Z,75.36
2018-12-01T09:47:12.005Z,75.70
2018-12-01T09:48:12.217Z,76.77
2018-12-01T09:49:11.887Z,77.18
2018-12-01T09:50:12.005Z,77.63
2018-12-01T09:51:12.228Z,77.67
2018-12-01T09:52:12.158Z,78.97
2018-12-01T09:54:35.301Z,79.52
2018-12-01T09:55:35.502Z,79.55
2018-12-01T09:56:35.341Z,78.83
2018-12-01T09:57:35.425Z,79.00
2018-12-01T09:58:34.896Z,77.52
2018-12-01T09:59:35.120Z,76.32
2018-12-01T10:00:35.316Z,74.33
2018-12-01T10:01:34.929Z,73.26
2018-12-01T10:02:35.152Z,73.23
2018-12-01T10:03:35.328Z,72.72
2018-12-01T10:04:34.943Z,71.96
2018-12-01T10:05:34.854Z,69.70
2018-12-01T10:06:35.067Z,70.04
2018-12-01T10:07:35.274Z,69.94
2018-12-01T10:09:49.336Z,71.24
2018-12-01T10:10:49.360Z,71.24
2018-12-01T10:11:50.551Z,70.73
2018-12-01T10:12:48.977Z,71.28
2018-12-01T10:13:49.351Z,71.45
2018-12-01T10:14:49.051Z,70.87
2018-12-01T10:15:48.950Z,69.84
2018-12-01T10:16:49.319Z,70.79
2018-12-01T10:17:49.076Z,70.62
2018-12-01T10:18:48.966Z,71.45
2018-12-01T10:19:48.872Z,71.51
2018-12-01T10:20:49.330Z,70.59
2018-12-01T10:21:49.307Z,70.70
2018-12-01T10:22:49.226Z,71.55
2018-12-01T10:25:22.388Z,72.20
2018-12-01T10:26:23.355Z,73.16
2018-12-01T10:27:22.324Z,74.33
2018-12-01T10:28:22.223Z,75.35
2018-12-01T10:29:22.141Z,75.81
2018-12-01T10:30:22.339Z,76.93
2018-12-01T10:34:43.399Z,73.13
2018-12-01T10:35:33.994Z,74.05
2018-12-01T10:40:40.487Z,75.77
2018-12-01T10:47:02.394Z,77.35
2018-12-01T10:47:45.467Z,77.35
2018-12-01T10:48:42.368Z,76.83
2018-12-01T10:49:42.044Z,77.45
2018-12-01T10:50:41.929Z,77.35
2018-12-01T10:51:42.141Z,77.45
2018-12-01T10:52:42.356Z,77.66
2018-12-01T10:53:41.657Z,77.14
2018-12-01T10:56:05.419Z,77.00
2018-12-01T10:57:07.497Z,77.11
2018-12-01T10:58:04.620Z,76.59
2018-12-01T10:59:04.592Z,76.59
2018-12-01T11:00:04.631Z,76.59
2018-12-01T11:01:04.646Z,76.90
2018-12-01T11:03:55.590Z,77.76
2018-12-01T11:04:40.323Z,77.31
2018-12-01T11:05:40.221Z,77.62
2018-12-01T11:10:09.402Z,78.14
2018-12-01T11:11:08.325Z,77.48
2018-12-01T11:12:08.248Z,76.76
2018-12-01T11:13:08.428Z,76.31
2018-12-01T11:14:08.332Z,76.11
2018-12-01T11:15:08.470Z,74.95
2018-12-01T11:16:08.486Z,74.50
2018-12-01T11:17:08.432Z,74.57
2018-12-01T11:18:08.276Z,73.19
2018-12-01T11:19:08.164Z,70.97
2018-12-01T11:20:08.490Z,70.67
2018-12-01T11:21:08.505Z,71.08
2018-12-01T11:22:09.134Z,70.94
2018-12-01T11:23:08.182Z,68.59
2018-12-01T11:24:08.317Z,68.83
2018-12-01T11:27:23.391Z,68.41
2018-12-01T11:28:21.427Z,69.68
2018-12-01T11:29:21.530Z,69.30
2018-12-01T11:30:21.399Z,70.15
2018-12-01T11:31:22.069Z,71.52
2018-12-01T11:32:21.496Z,71.86
2018-12-01T11:33:21.453Z,73.44
2018-12-01T11:34:21.585Z,73.85
2018-12-01T11:35:21.568Z,74.95
2018-12-01T11:36:21.551Z,75.80
2018-12-01T11:37:21.486Z,76.83
2018-12-01T11:38:22.102Z,77.24
2018-12-01T11:39:21.590Z,76.79
2018-12-01T11:42:38.468Z,73.06
2018-12-01T11:43:38.417Z,73.27
2018-12-01T11:44:38.404Z,72.92
2018-12-01T11:45:38.473Z,73.06
2018-12-01T11:46:38.578Z,73.02
2018-12-01T11:47:38.482Z,73.06
2018-12-01T11:48:38.364Z,72.85
2018-12-01T11:49:38.469Z,73.16
2018-12-01T11:50:38.497Z,73.68
2018-12-01T11:55:40.807Z,72.99
2018-12-01T11:56:35.427Z,74.22
2018-12-01T11:57:34.329Z,74.87
2018-12-01T11:58:34.231Z,75.59
2018-12-01T11:59:35.469Z,76.76
2018-12-01T12:00:34.350Z,76.79
2018-12-01T12:01:34.261Z,77.00
2018-12-01T12:02:34.425Z,78.47
2018-12-01T12:03:34.387Z,78.47
2018-12-01T12:04:34.429Z,78.58
2018-12-01T12:05:34.443Z,79.30
2018-12-01T12:06:34.469Z,79.61
2018-12-01T12:07:34.310Z,79.64
2018-12-01T12:08:34.220Z,79.50
2018-12-01T12:09:34.121Z,80.26
2018-12-01T12:11:46.447Z,80.61
2018-12-01T12:12:46.118Z,81.74
2018-12-01T12:13:46.021Z,82.09
2018-12-01T12:14:45.935Z,82.60
2018-12-01T12:15:45.830Z,82.70
2018-12-01T12:16:46.043Z,83.36
2018-12-01T12:17:46.272Z,83.73
2018-12-01T12:18:46.473Z,83.56
2018-12-01T12:19:46.071Z,83.63
2018-12-01T12:20:45.967Z,83.67
2018-12-01T12:21:46.196Z,83.77
2018-12-01T12:22:45.786Z,83.84
2018-12-01T12:23:46.456Z,83.36
2018-12-01T12:24:45.901Z,83.63
2018-12-01T12:27:09.495Z,83.15
2018-12-01T12:28:09.284Z,83.77
2018-12-01T12:29:09.782Z,84.49
2018-12-01T12:30:09.377Z,84.39
2018-12-01T12:31:09.278Z,83.87
2018-12-01T12:32:09.186Z,84.56
2018-12-01T12:33:09.401Z,83.56
2018-12-01T12:34:09.454Z,84.14
2018-12-01T12:35:09.481Z,83.94
2018-12-01T12:36:09.424Z,83.73
2018-12-01T12:37:09.331Z,83.84
2018-12-01T12:38:09.235Z,83.77
2018-12-01T12:39:09.141Z,83.73
2018-12-01T12:40:09.467Z,84.35
2018-12-01T12:42:43.588Z,84.39
2018-12-01T12:43:43.195Z,84.29
2018-12-01T12:44:43.126Z,85.01
2018-12-01T12:45:43.317Z,84.70
2018-12-01T12:46:43.228Z,84.80
2018-12-01T12:47:43.090Z,84.80
2018-12-01T12:48:43.008Z,84.70
2018-12-01T12:49:42.913Z,85.31
2018-12-01T12:50:43.435Z,85.22
2018-12-01T12:51:43.478Z,84.91
2018-12-01T12:52:43.473Z,85.83
2018-12-01T12:53:42.840Z,85.73
2018-12-01T12:54:43.048Z,85.83
2018-12-01T12:55:43.500Z,85.83
2018-12-01T12:57:54.523Z,85.83
2018-12-01T12:58:54.954Z,85.46
2018-12-01T12:59:54.507Z,85.22
2018-12-01T13:00:54.519Z,85.73
2018-12-01T13:01:54.356Z,85.11
2018-12-01T13:02:55.197Z,86.04
2018-12-01T13:03:54.495Z,85.17
2018-12-01T13:04:54.385Z,85.11
2018-12-01T13:05:54.343Z,85.38
2018-12-01T13:06:54.530Z,85.31
2018-12-01T13:07:54.411Z,84.91
2018-12-01T13:08:54.325Z,85.83
2018-12-01T13:09:54.239Z,86.35
2018-12-01T13:10:54.471Z,85.94
2018-12-01T13:13:27.763Z,85.73
2018-12-01T13:14:27.959Z,86.35
2018-12-01T13:15:28.152Z,86.55
2018-12-01T13:16:28.538Z,85.73
2018-12-01T13:17:27.653Z,86.35
2018-12-01T13:18:27.863Z,86.24
2018-12-01T13:19:27.689Z,86.04
2018-12-01T13:20:28.511Z,86.04
2018-12-01T13:21:27.894Z,86.04
2018-12-01T13:22:27.600Z,86.55
2018-12-01T13:23:28.003Z,86.76
2018-12-01T13:24:27.910Z,86.76
2018-12-01T13:25:27.581Z,86.97
2018-12-01T13:26:27.600Z,86.45
2018-12-01T13:28:49.352Z,86.76
2018-12-01T13:29:49.241Z,86.35
2018-12-01T13:30:49.146Z,86.87
2018-12-01T13:31:54.400Z,86.55
2018-12-01T13:32:51.518Z,86.66
2018-12-01T13:33:49.473Z,86.66
2018-12-01T13:34:49.063Z,86.35
2018-12-01T13:35:49.278Z,86.55
2018-12-01T13:36:49.188Z,86.66
2018-12-01T13:37:49.094Z,86.45
2018-12-01T13:38:49.306Z,86.66
2018-12-01T13:39:49.226Z,86.87
2018-12-01T13:40:49.136Z,86.41
2018-12-01T13:43:11.361Z,86.15
2018-12-01T13:44:10.950Z,86.24
2018-12-01T13:45:11.549Z,86.35
2018-12-01T13:46:10.678Z,86.66
2018-12-01T13:47:10.660Z,86.66
2018-12-01T13:48:10.873Z,86.24
2018-12-01T13:49:10.652Z,86.45
2018-12-01T13:50:10.649Z,86.45
2018-12-01T13:51:10.905Z,86.10
2018-12-01T13:52:10.806Z,86.35
2018-12-01T13:53:10.604Z,86.10
2018-12-01T13:54:10.633Z,86.55
2018-12-01T13:55:10.587Z,86.10
2018-12-01T13:56:10.603Z,86.24
2018-12-01T13:58:23.437Z,86.55
2018-12-01T13:59:24.270Z,86.76
2018-12-01T14:00:23.553Z,86.97
2018-12-01T14:01:23.494Z,86.55
2018-12-01T14:02:23.057Z,86.35
2018-12-01T14:03:24.598Z,86.87
2018-12-01T14:04:23.203Z,86.87
2018-12-01T14:05:24.012Z,86.87
2018-12-01T14:06:23.300Z,86.97
2018-12-01T14:07:23.203Z,86.55
2018-12-01T14:08:24.053Z,87.48
2018-12-01T14:09:23.331Z,88.45
2018-12-01T14:10:23.233Z,88.14
2018-12-01T14:11:24.228Z,87.83
2018-12-01T14:13:46.600Z,87.83
2018-12-01T14:14:45.880Z,88.04
2018-12-01T14:15:46.410Z,88.35
2018-12-01T14:16:46.568Z,88.29
2018-12-01T14:17:45.618Z,88.35
2018-12-01T14:18:45.586Z,88.35
2018-12-01T14:19:45.609Z,88.80
2018-12-01T14:20:45.579Z,88.59
2018-12-01T14:21:45.581Z,89.01
2018-12-01T14:22:45.574Z,88.90
2018-12-01T14:23:45.955Z,89.32
2018-12-01T14:24:45.559Z,88.80
2018-12-01T14:25:45.768Z,88.90
2018-12-01T14:26:45.574Z,88.70
2018-12-01T14:29:17.753Z,88.70
2018-12-01T14:30:18.564Z,89.01
2018-12-01T14:31:17.704Z,89.11
2018-12-01T14:32:17.657Z,89.22
2018-12-01T14:33:17.653Z,89.32